sensor_id;sensor_type;location;lat;lon;timestamp;P1;durP1;ratioP1;P2;durP2;ratioP2
66830;SDS011;53739;44.224;22.528;2023-03-23T00:01:16;214.32;;;129.75;;
66830;SDS011;53739;44.224;22.528;2023-03-23T00:03:48;225.75;;;133.93;;
66830;SDS011;53739;44.224;22.528;2023-03-23T00:06:15;222.32;;;128.73;;
66830;SDS011;53739;44.224;22.528;2023-03-23T00:08:45;208.23;;;126.25;;
66830;SDS011;53739;44.224;22.528;2023-03-23T00:13:46;176.32;;;109.65;;
66830;SDS011;53739;44.224;22.528;2023-03-23T00:16:16;153.27;;;100.32;;
66830;SDS011;53739;44.224;22.528;2023-03-23T00:18:51;149.77;;;99.43;;
66830;SDS011;53739;44.224;22.528;2023-03-23T00:21:21;169.48;;;115.97;;
66830;SDS011;53739;44.224;22.528;2023-03-23T00:23:50;156.52;;;104.25;;
66830;SDS011;53739;44.224;22.528;2023-03-23T00:26:17;165.77;;;107.55;;
66830;SDS011;53739;44.224;22.528;2023-03-23T00:28:43;168.93;;;114.40;;
66830;SDS011;53739;44.224;22.528;2023-03-23T00:31:11;208.73;;;135.98;;
66830;SDS011;53739;44.224;22.528;2023-03-23T00:33:38;229.05;;;148.20;;
66830;SDS011;53739;44.224;22.528;2023-03-23T00:36:06;254.20;;;160.20;;
66830;SDS011;53739;44.224;22.528;2023-03-23T00:38:33;221.35;;;144.82;;
66830;SDS011;53739;44.224;22.528;2023-03-23T00:41:00;228.55;;;148.52;;
66830;SDS011;53739;44.224;22.528;2023-03-23T00:43:29;184.20;;;122.00;;
66830;SDS011;53739;44.224;22.528;2023-03-23T00:45:56;212.80;;;138.43;;
66830;SDS011;53739;44.224;22.528;2023-03-23T00:48:26;218.15;;;138.48;;
66830;SDS011;53739;44.224;22.528;2023-03-23T00:50:53;381.88;;;226.18;;
66830;SDS011;53739;44.224;22.528;2023-03-23T00:53:19;307.95;;;198.48;;
66830;SDS011;53739;44.224;22.528;2023-03-23T00:55:45;173.63;;;115.00;;
66830;SDS011;53739;44.224;22.528;2023-03-23T00:58:13;151.05;;;102.70;;
66830;SDS011;53739;44.224;22.528;2023-03-23T01:00:39;136.32;;;93.72;;
66830;SDS011;53739;44.224;22.528;2023-03-23T01:03:06;157.10;;;103.72;;
66830;SDS011;53739;44.224;22.528;2023-03-23T01:05:36;155.02;;;105.03;;
66830;SDS011;53739;44.224;22.528;2023-03-23T01:08:03;150.98;;;101.43;;
66830;SDS011;53739;44.224;22.528;2023-03-23T01:10:30;146.90;;;90.40;;
66830;SDS011;53739;44.224;22.528;2023-03-23T01:12:58;144.48;;;88.15;;
66830;SDS011;53739;44.224;22.528;2023-03-23T01:15:25;152.27;;;75.82;;
66830;SDS011;53739;44.224;22.528;2023-03-23T01:17:52;121.03;;;79.07;;
66830;SDS011;53739;44.224;22.528;2023-03-23T01:20:18;89.78;;;55.33;;
66830;SDS011;53739;44.224;22.528;2023-03-23T01:22:44;90.32;;;57.20;;
66830;SDS011;53739;44.224;22.528;2023-03-23T01:25:10;293.30;;;120.68;;
66830;SDS011;53739;44.224;22.528;2023-03-23T01:27:37;116.85;;;72.75;;
66830;SDS011;53739;44.224;22.528;2023-03-23T01:30:03;118.28;;;77.32;;
66830;SDS011;53739;44.224;22.528;2023-03-23T01:32:30;175.60;;;107.35;;
66830;SDS011;53739;44.224;22.528;2023-03-23T01:34:56;160.40;;;97.85;;
66830;SDS011;53739;44.224;22.528;2023-03-23T01:37:22;144.95;;;91.60;;
66830;SDS011;53739;44.224;22.528;2023-03-23T01:39:51;143.30;;;90.78;;
66830;SDS011;53739;44.224;22.528;2023-03-23T01:42:24;140.82;;;89.55;;
66830;SDS011;53739;44.224;22.528;2023-03-23T01:47:20;162.80;;;110.40;;
66830;SDS011;53739;44.224;22.528;2023-03-23T01:49:48;170.02;;;106.63;;
66830;SDS011;53739;44.224;22.528;2023-03-23T01:52:20;147.38;;;95.75;;
66830;SDS011;53739;44.224;22.528;2023-03-23T01:54:50;109.97;;;73.38;;
66830;SDS011;53739;44.224;22.528;2023-03-23T01:57:20;118.50;;;71.03;;
66830;SDS011;53739;44.224;22.528;2023-03-23T01:59:49;97.40;;;60.55;;
66830;SDS011;53739;44.224;22.528;2023-03-23T02:02:17;120.35;;;74.72;;
66830;SDS011;53739;44.224;22.528;2023-03-23T02:04:46;94.90;;;64.05;;
66830;SDS011;53739;44.224;22.528;2023-03-23T02:07:12;104.50;;;55.67;;
66830;SDS011;53739;44.224;22.528;2023-03-23T02:09:40;119.72;;;56.38;;
66830;SDS011;53739;44.224;22.528;2023-03-23T02:12:06;91.78;;;53.67;;
66830;SDS011;53739;44.224;22.528;2023-03-23T02:14:32;96.90;;;54.95;;
66830;SDS011;53739;44.224;22.528;2023-03-23T02:22:36;84.65;;;55.22;;
66830;SDS011;53739;44.224;22.528;2023-03-23T02:33:46;282.52;;;62.70;;
66830;SDS011;53739;44.224;22.528;2023-03-23T02:36:19;148.95;;;51.85;;
66830;SDS011;53739;44.224;22.528;2023-03-23T02:44:20;252.73;;;72.88;;
66830;SDS011;53739;44.224;22.528;2023-03-23T02:46:48;240.60;;;71.43;;
66830;SDS011;53739;44.224;22.528;2023-03-23T02:49:15;136.45;;;61.03;;
66830;SDS011;53739;44.224;22.528;2023-03-23T02:51:43;186.38;;;75.13;;
66830;SDS011;53739;44.224;22.528;2023-03-23T02:54:11;253.63;;;82.35;;
66830;SDS011;53739;44.224;22.528;2023-03-23T02:56:40;237.23;;;83.50;;
66830;SDS011;53739;44.224;22.528;2023-03-23T02:59:06;289.05;;;91.35;;
66830;SDS011;53739;44.224;22.528;2023-03-23T03:03:58;263.85;;;91.55;;
66830;SDS011;53739;44.224;22.528;2023-03-23T03:06:50;229.18;;;84.38;;
66830;SDS011;53739;44.224;22.528;2023-03-23T03:09:26;273.55;;;95.32;;
66830;SDS011;53739;44.224;22.528;2023-03-23T03:12:04;145.07;;;76.68;;
66830;SDS011;53739;44.224;22.528;2023-03-23T03:14:48;148.95;;;84.45;;
66830;SDS011;53739;44.224;22.528;2023-03-23T03:17:26;146.73;;;79.90;;
66830;SDS011;53739;44.224;22.528;2023-03-23T03:19:57;198.55;;;92.43;;
66830;SDS011;53739;44.224;22.528;2023-03-23T03:22:27;144.48;;;77.55;;
66830;SDS011;53739;44.224;22.528;2023-03-23T03:24:55;136.02;;;75.13;;
66830;SDS011;53739;44.224;22.528;2023-03-23T03:27:22;142.77;;;82.55;;
66830;SDS011;53739;44.224;22.528;2023-03-23T03:29:51;145.73;;;82.07;;
66830;SDS011;53739;44.224;22.528;2023-03-23T03:32:22;109.45;;;52.97;;
66830;SDS011;53739;44.224;22.528;2023-03-23T03:34:56;70.97;;;37.03;;
66830;SDS011;53739;44.224;22.528;2023-03-23T03:37:24;60.38;;;28.50;;
66830;SDS011;53739;44.224;22.528;2023-03-23T03:39:50;46.88;;;26.58;;
66830;SDS011;53739;44.224;22.528;2023-03-23T03:42:16;40.65;;;25.02;;
66830;SDS011;53739;44.224;22.528;2023-03-23T03:44:42;48.38;;;26.90;;
66830;SDS011;53739;44.224;22.528;2023-03-23T03:47:07;46.17;;;26.65;;
66830;SDS011;53739;44.224;22.528;2023-03-23T03:49:33;51.97;;;28.75;;
66830;SDS011;53739;44.224;22.528;2023-03-23T03:52:00;55.70;;;33.30;;
66830;SDS011;53739;44.224;22.528;2023-03-23T03:54:25;59.70;;;36.55;;
66830;SDS011;53739;44.224;22.528;2023-03-23T03:56:52;60.00;;;37.38;;
66830;SDS011;53739;44.224;22.528;2023-03-23T03:59:22;86.13;;;45.88;;
66830;SDS011;53739;44.224;22.528;2023-03-23T04:01:48;93.80;;;49.78;;
66830;SDS011;53739;44.224;22.528;2023-03-23T04:04:19;87.07;;;46.97;;
66830;SDS011;53739;44.224;22.528;2023-03-23T04:06:46;123.65;;;69.30;;
66830;SDS011;53739;44.224;22.528;2023-03-23T04:09:14;139.00;;;75.10;;
66830;SDS011;53739;44.224;22.528;2023-03-23T04:11:40;156.90;;;74.75;;
66830;SDS011;53739;44.224;22.528;2023-03-23T04:14:05;153.10;;;72.07;;
66830;SDS011;53739;44.224;22.528;2023-03-23T04:16:31;113.93;;;58.30;;
66830;SDS011;53739;44.224;22.528;2023-03-23T04:18:59;88.38;;;44.53;;
66830;SDS011;53739;44.224;22.528;2023-03-23T04:21:25;85.50;;;40.10;;
66830;SDS011;53739;44.224;22.528;2023-03-23T04:23:53;88.25;;;39.88;;
66830;SDS011;53739;44.224;22.528;2023-03-23T04:26:26;148.05;;;44.03;;
66830;SDS011;53739;44.224;22.528;2023-03-23T04:28:54;211.07;;;47.75;;
66830;SDS011;53739;44.224;22.528;2023-03-23T04:31:20;238.65;;;53.42;;
66830;SDS011;53739;44.224;22.528;2023-03-23T04:33:49;233.35;;;53.30;;
66830;SDS011;53739;44.224;22.528;2023-03-23T04:36:17;226.25;;;53.03;;
66830;SDS011;53739;44.224;22.528;2023-03-23T04:38:43;201.30;;;52.47;;
66830;SDS011;53739;44.224;22.528;2023-03-23T04:41:09;173.20;;;58.28;;
66830;SDS011;53739;44.224;22.528;2023-03-23T04:43:35;211.50;;;62.75;;
66830;SDS011;53739;44.224;22.528;2023-03-23T04:46:06;188.23;;;62.50;;
66830;SDS011;53739;44.224;22.528;2023-03-23T04:48:35;254.15;;;64.57;;
66830;SDS011;53739;44.224;22.528;2023-03-23T04:51:05;343.55;;;77.78;;
66830;SDS011;53739;44.224;22.528;2023-03-23T04:53:31;543.40;;;100.82;;
66830;SDS011;53739;44.224;22.528;2023-03-23T04:55:57;158.35;;;64.68;;
66830;SDS011;53739;44.224;22.528;2023-03-23T04:58:26;409.77;;;105.28;;
66830;SDS011;53739;44.224;22.528;2023-03-23T05:00:53;436.50;;;118.70;;
66830;SDS011;53739;44.224;22.528;2023-03-23T05:03:19;341.10;;;113.55;;
66830;SDS011;53739;44.224;22.528;2023-03-23T05:05:45;237.90;;;99.13;;
66830;SDS011;53739;44.224;22.528;2023-03-23T05:08:16;466.80;;;136.05;;
66830;SDS011;53739;44.224;22.528;2023-03-23T05:10:49;503.58;;;123.40;;
66830;SDS011;53739;44.224;22.528;2023-03-23T05:13:16;399.38;;;112.38;;
66830;SDS011;53739;44.224;22.528;2023-03-23T05:15:41;781.72;;;160.90;;
66830;SDS011;53739;44.224;22.528;2023-03-23T05:18:07;398.98;;;115.45;;
66830;SDS011;53739;44.224;22.528;2023-03-23T05:20:35;254.10;;;100.28;;
66830;SDS011;53739;44.224;22.528;2023-03-23T05:23:00;417.75;;;138.27;;
66830;SDS011;53739;44.224;22.528;2023-03-23T05:25:26;601.45;;;165.85;;
66830;SDS011;53739;44.224;22.528;2023-03-23T05:27:52;780.97;;;168.73;;
66830;SDS011;53739;44.224;22.528;2023-03-23T05:30:19;451.23;;;100.05;;
66830;SDS011;53739;44.224;22.528;2023-03-23T05:32:46;360.27;;;92.82;;
66830;SDS011;53739;44.224;22.528;2023-03-23T05:35:15;388.35;;;101.38;;
66830;SDS011;53739;44.224;22.528;2023-03-23T05:37:42;391.17;;;117.07;;
66830;SDS011;53739;44.224;22.528;2023-03-23T05:40:09;448.08;;;119.03;;
66830;SDS011;53739;44.224;22.528;2023-03-23T05:42:37;632.28;;;148.13;;
66830;SDS011;53739;44.224;22.528;2023-03-23T05:45:06;654.53;;;154.38;;
66830;SDS011;53739;44.224;22.528;2023-03-23T05:47:33;556.10;;;151.32;;
66830;SDS011;53739;44.224;22.528;2023-03-23T05:49:59;464.65;;;154.48;;
66830;SDS011;53739;44.224;22.528;2023-03-23T05:52:25;508.73;;;137.63;;
66830;SDS011;53739;44.224;22.528;2023-03-23T05:54:51;515.92;;;129.38;;
66830;SDS011;53739;44.224;22.528;2023-03-23T05:57:17;433.38;;;123.13;;
66830;SDS011;53739;44.224;22.528;2023-03-23T05:59:46;761.42;;;169.70;;
66830;SDS011;53739;44.224;22.528;2023-03-23T06:02:12;551.20;;;147.20;;
66830;SDS011;53739;44.224;22.528;2023-03-23T06:04:39;407.15;;;133.30;;
66830;SDS011;53739;44.224;22.528;2023-03-23T06:07:06;459.70;;;130.63;;
66830;SDS011;53739;44.224;22.528;2023-03-23T06:09:32;596.20;;;141.75;;
66830;SDS011;53739;44.224;22.528;2023-03-23T06:11:58;498.98;;;108.30;;
66830;SDS011;53739;44.224;22.528;2023-03-23T06:14:24;476.58;;;109.95;;
66830;SDS011;53739;44.224;22.528;2023-03-23T06:16:52;466.48;;;119.80;;
66830;SDS011;53739;44.224;22.528;2023-03-23T06:19:18;460.23;;;115.53;;
66830;SDS011;53739;44.224;22.528;2023-03-23T06:21:44;253.90;;;77.82;;
66830;SDS011;53739;44.224;22.528;2023-03-23T06:24:10;381.10;;;97.15;;
66830;SDS011;53739;44.224;22.528;2023-03-23T06:26:36;319.63;;;90.93;;
66830;SDS011;53739;44.224;22.528;2023-03-23T06:29:04;379.77;;;101.63;;
66830;SDS011;53739;44.224;22.528;2023-03-23T06:31:36;402.23;;;134.68;;
66830;SDS011;53739;44.224;22.528;2023-03-23T06:34:10;394.42;;;107.13;;
66830;SDS011;53739;44.224;22.528;2023-03-23T06:36:39;270.73;;;99.60;;
66830;SDS011;53739;44.224;22.528;2023-03-23T06:39:09;211.25;;;89.85;;
66830;SDS011;53739;44.224;22.528;2023-03-23T06:41:36;181.68;;;85.45;;
66830;SDS011;53739;44.224;22.528;2023-03-23T06:44:01;178.32;;;61.55;;
66830;SDS011;53739;44.224;22.528;2023-03-23T06:46:28;131.18;;;59.08;;
66830;SDS011;53739;44.224;22.528;2023-03-23T06:48:54;258.05;;;64.78;;
66830;SDS011;53739;44.224;22.528;2023-03-23T06:51:20;162.63;;;53.80;;
66830;SDS011;53739;44.224;22.528;2023-03-23T06:53:52;172.63;;;60.45;;
66830;SDS011;53739;44.224;22.528;2023-03-23T06:56:18;156.43;;;54.13;;
66830;SDS011;53739;44.224;22.528;2023-03-23T06:58:44;113.63;;;46.88;;
66830;SDS011;53739;44.224;22.528;2023-03-23T07:01:12;116.78;;;46.85;;
66830;SDS011;53739;44.224;22.528;2023-03-23T07:03:42;109.45;;;50.92;;
66830;SDS011;53739;44.224;22.528;2023-03-23T07:06:09;107.82;;;49.38;;
66830;SDS011;53739;44.224;22.528;2023-03-23T07:08:35;107.30;;;46.20;;
66830;SDS011;53739;44.224;22.528;2023-03-23T07:11:02;91.88;;;43.83;;
66830;SDS011;53739;44.224;22.528;2023-03-23T07:13:28;170.38;;;94.18;;
66830;SDS011;53739;44.224;22.528;2023-03-23T07:15:54;164.35;;;88.22;;
66830;SDS011;53739;44.224;22.528;2023-03-23T07:18:21;109.88;;;60.67;;
66830;SDS011;53739;44.224;22.528;2023-03-23T07:20:50;83.95;;;43.20;;
66830;SDS011;53739;44.224;22.528;2023-03-23T07:23:17;74.47;;;40.75;;
66830;SDS011;53739;44.224;22.528;2023-03-23T07:25:43;86.10;;;44.42;;
66830;SDS011;53739;44.224;22.528;2023-03-23T07:28:11;73.95;;;38.78;;
66830;SDS011;53739;44.224;22.528;2023-03-23T07:30:37;84.93;;;46.95;;
66830;SDS011;53739;44.224;22.528;2023-03-23T07:33:04;69.25;;;42.42;;
66830;SDS011;53739;44.224;22.528;2023-03-23T07:35:31;86.28;;;48.28;;
66830;SDS011;53739;44.224;22.528;2023-03-23T07:37:57;74.53;;;39.92;;
66830;SDS011;53739;44.224;22.528;2023-03-23T07:40:24;78.50;;;44.80;;
66830;SDS011;53739;44.224;22.528;2023-03-23T07:42:53;62.22;;;38.17;;
66830;SDS011;53739;44.224;22.528;2023-03-23T07:45:20;81.97;;;44.63;;
66830;SDS011;53739;44.224;22.528;2023-03-23T07:47:46;92.68;;;50.50;;
66830;SDS011;53739;44.224;22.528;2023-03-23T07:50:12;86.53;;;46.88;;
66830;SDS011;53739;44.224;22.528;2023-03-23T07:52:39;86.18;;;46.25;;
66830;SDS011;53739;44.224;22.528;2023-03-23T07:55:06;85.70;;;51.20;;
66830;SDS011;53739;44.224;22.528;2023-03-23T07:57:46;78.00;;;48.10;;
66830;SDS011;53739;44.224;22.528;2023-03-23T08:00:14;90.57;;;51.95;;
66830;SDS011;53739;44.224;22.528;2023-03-23T08:02:48;91.88;;;51.75;;
66830;SDS011;53739;44.224;22.528;2023-03-23T08:05:22;90.75;;;51.45;;
66830;SDS011;53739;44.224;22.528;2023-03-23T08:07:51;86.63;;;49.92;;
66830;SDS011;53739;44.224;22.528;2023-03-23T08:10:19;76.68;;;45.70;;
66830;SDS011;53739;44.224;22.528;2023-03-23T08:12:49;93.60;;;52.65;;
66830;SDS011;53739;44.224;22.528;2023-03-23T08:15:17;100.40;;;54.67;;
66830;SDS011;53739;44.224;22.528;2023-03-23T08:17:43;109.28;;;57.80;;
66830;SDS011;53739;44.224;22.528;2023-03-23T08:20:10;112.53;;;63.67;;
66830;SDS011;53739;44.224;22.528;2023-03-23T08:22:38;113.90;;;63.83;;
66830;SDS011;53739;44.224;22.528;2023-03-23T08:25:13;108.22;;;64.07;;
66830;SDS011;53739;44.224;22.528;2023-03-23T08:27:42;109.10;;;62.92;;
66830;SDS011;53739;44.224;22.528;2023-03-23T08:30:09;125.00;;;72.82;;
66830;SDS011;53739;44.224;22.528;2023-03-23T08:32:37;123.90;;;73.13;;
66830;SDS011;53739;44.224;22.528;2023-03-23T08:35:04;121.03;;;70.35;;
66830;SDS011;53739;44.224;22.528;2023-03-23T08:37:31;108.70;;;66.63;;
66830;SDS011;53739;44.224;22.528;2023-03-23T08:39:56;114.53;;;67.57;;
66830;SDS011;53739;44.224;22.528;2023-03-23T08:42:23;115.13;;;71.85;;
66830;SDS011;53739;44.224;22.528;2023-03-23T08:44:50;134.35;;;77.22;;
66830;SDS011;53739;44.224;22.528;2023-03-23T08:47:16;125.78;;;78.55;;
66830;SDS011;53739;44.224;22.528;2023-03-23T08:49:42;122.13;;;77.28;;
66830;SDS011;53739;44.224;22.528;2023-03-23T08:52:10;106.18;;;64.68;;
66830;SDS011;53739;44.224;22.528;2023-03-23T08:54:36;103.95;;;63.97;;
66830;SDS011;53739;44.224;22.528;2023-03-23T08:57:03;92.22;;;57.10;;
66830;SDS011;53739;44.224;22.528;2023-03-23T08:59:29;102.78;;;63.15;;
66830;SDS011;53739;44.224;22.528;2023-03-23T09:01:55;112.55;;;68.25;;
66830;SDS011;53739;44.224;22.528;2023-03-23T09:04:21;121.85;;;71.75;;
66830;SDS011;53739;44.224;22.528;2023-03-23T09:06:46;94.22;;;60.70;;
66830;SDS011;53739;44.224;22.528;2023-03-23T09:09:12;86.70;;;55.88;;
66830;SDS011;53739;44.224;22.528;2023-03-23T09:11:41;82.82;;;51.40;;
66830;SDS011;53739;44.224;22.528;2023-03-23T09:14:07;70.28;;;46.35;;
66830;SDS011;53739;44.224;22.528;2023-03-23T09:16:33;64.68;;;44.15;;
66830;SDS011;53739;44.224;22.528;2023-03-23T09:18:59;74.97;;;47.92;;
66830;SDS011;53739;44.224;22.528;2023-03-23T09:21:26;71.10;;;45.00;;
66830;SDS011;53739;44.224;22.528;2023-03-23T09:23:52;70.03;;;47.38;;
66830;SDS011;53739;44.224;22.528;2023-03-23T09:26:25;72.53;;;47.17;;
66830;SDS011;53739;44.224;22.528;2023-03-23T09:28:51;67.53;;;47.45;;
66830;SDS011;53739;44.224;22.528;2023-03-23T09:31:17;70.95;;;46.60;;
66830;SDS011;53739;44.224;22.528;2023-03-23T09:33:45;62.97;;;42.55;;
66830;SDS011;53739;44.224;22.528;2023-03-23T09:36:11;76.95;;;47.53;;
66830;SDS011;53739;44.224;22.528;2023-03-23T09:38:39;62.13;;;43.58;;
66830;SDS011;53739;44.224;22.528;2023-03-23T09:47:08;64.20;;;43.30;;
66830;SDS011;53739;44.224;22.528;2023-03-23T09:50:04;61.25;;;38.53;;
66830;SDS011;53739;44.224;22.528;2023-03-23T09:52:43;49.75;;;37.88;;
66830;SDS011;53739;44.224;22.528;2023-03-23T09:55:13;55.85;;;39.88;;
66830;SDS011;53739;44.224;22.528;2023-03-23T09:57:49;51.45;;;36.83;;
66830;SDS011;53739;44.224;22.528;2023-03-23T10:00:24;52.33;;;36.60;;
66830;SDS011;53739;44.224;22.528;2023-03-23T10:03:13;45.65;;;33.58;;
66830;SDS011;53739;44.224;22.528;2023-03-23T10:05:50;46.97;;;35.08;;
66830;SDS011;53739;44.224;22.528;2023-03-23T10:08:25;55.20;;;39.63;;
66830;SDS011;53739;44.224;22.528;2023-03-23T10:13:52;53.47;;;38.75;;
66830;SDS011;53739;44.224;22.528;2023-03-23T10:16:26;44.55;;;31.92;;
66830;SDS011;53739;44.224;22.528;2023-03-23T10:22:03;41.50;;;32.50;;
66830;SDS011;53739;44.224;22.528;2023-03-23T10:24:35;45.42;;;35.70;;
66830;SDS011;53739;44.224;22.528;2023-03-23T10:29:37;47.63;;;36.55;;
66830;SDS011;53739;44.224;22.528;2023-03-23T10:32:18;47.97;;;35.15;;
66830;SDS011;53739;44.224;22.528;2023-03-23T10:34:57;43.42;;;33.33;;
66830;SDS011;53739;44.224;22.528;2023-03-23T10:37:29;51.22;;;35.10;;
66830;SDS011;53739;44.224;22.528;2023-03-23T10:40:02;48.90;;;35.53;;
66830;SDS011;53739;44.224;22.528;2023-03-23T10:42:34;40.67;;;31.90;;
66830;SDS011;53739;44.224;22.528;2023-03-23T10:45:36;44.35;;;33.63;;
66830;SDS011;53739;44.224;22.528;2023-03-23T10:50:32;52.05;;;36.55;;
66830;SDS011;53739;44.224;22.528;2023-03-23T10:53:03;41.40;;;33.03;;
66830;SDS011;53739;44.224;22.528;2023-03-23T10:55:38;59.05;;;40.65;;
66830;SDS011;53739;44.224;22.528;2023-03-23T10:58:07;43.55;;;32.28;;
66830;SDS011;53739;44.224;22.528;2023-03-23T11:00:43;42.53;;;33.67;;
66830;SDS011;53739;44.224;22.528;2023-03-23T11:08:15;38.30;;;28.65;;
66830;SDS011;53739;44.224;22.528;2023-03-23T11:10:51;40.40;;;31.05;;
66830;SDS011;53739;44.224;22.528;2023-03-23T11:13:26;38.30;;;31.17;;
66830;SDS011;53739;44.224;22.528;2023-03-23T11:15:55;45.13;;;35.83;;
66830;SDS011;53739;44.224;22.528;2023-03-23T11:18:22;45.15;;;35.05;;
66830;SDS011;53739;44.224;22.528;2023-03-23T11:21:00;40.58;;;32.33;;
66830;SDS011;53739;44.224;22.528;2023-03-23T11:23:32;56.22;;;44.65;;
66830;SDS011;53739;44.224;22.528;2023-03-23T11:26:09;39.00;;;31.67;;
66830;SDS011;53739;44.224;22.528;2023-03-23T11:29:31;38.05;;;30.15;;
66830;SDS011;53739;44.224;22.528;2023-03-23T11:31:44;38.40;;;29.70;;
66830;SDS011;53739;44.224;22.528;2023-03-23T11:34:18;37.25;;;28.65;;
66830;SDS011;53739;44.224;22.528;2023-03-23T11:36:49;37.28;;;29.05;;
66830;SDS011;53739;44.224;22.528;2023-03-23T11:45:37;38.28;;;30.85;;
66830;SDS011;53739;44.224;22.528;2023-03-23T11:48:18;34.17;;;27.23;;
66830;SDS011;53739;44.224;22.528;2023-03-23T11:51:08;41.20;;;32.55;;
66830;SDS011;53739;44.224;22.528;2023-03-23T11:53:50;32.75;;;27.27;;
66830;SDS011;53739;44.224;22.528;2023-03-23T11:56:30;40.97;;;31.38;;
66830;SDS011;53739;44.224;22.528;2023-03-23T11:58:59;41.05;;;29.05;;
66830;SDS011;53739;44.224;22.528;2023-03-23T12:26:17;37.53;;;28.10;;
66830;SDS011;53739;44.224;22.528;2023-03-23T12:42:37;32.95;;;25.65;;
66830;SDS011;53739;44.224;22.528;2023-03-23T12:48:19;24.20;;;21.60;;
66830;SDS011;53739;44.224;22.528;2023-03-23T12:58:53;34.05;;;25.58;;
66830;SDS011;53739;44.224;22.528;2023-03-23T13:01:43;28.40;;;24.55;;
66830;SDS011;53739;44.224;22.528;2023-03-23T13:04:15;26.55;;;21.73;;
66830;SDS011;53739;44.224;22.528;2023-03-23T13:06:46;25.73;;;21.08;;
66830;SDS011;53739;44.224;22.528;2023-03-23T13:11:53;26.52;;;21.80;;
66830;SDS011;53739;44.224;22.528;2023-03-23T13:14:25;28.75;;;24.38;;
66830;SDS011;53739;44.224;22.528;2023-03-23T13:25:30;22.35;;;18.42;;
66830;SDS011;53739;44.224;22.528;2023-03-23T13:28:17;26.88;;;22.30;;
66830;SDS011;53739;44.224;22.528;2023-03-23T13:33:20;23.42;;;18.83;;
66830;SDS011;53739;44.224;22.528;2023-03-23T13:35:46;28.30;;;22.48;;
66830;SDS011;53739;44.224;22.528;2023-03-23T13:40:49;28.95;;;22.50;;
66830;SDS011;53739;44.224;22.528;2023-03-23T13:43:30;20.90;;;17.20;;
66830;SDS011;53739;44.224;22.528;2023-03-23T13:49:16;21.90;;;19.33;;
66830;SDS011;53739;44.224;22.528;2023-03-23T13:54:25;24.90;;;19.77;;
66830;SDS011;53739;44.224;22.528;2023-03-23T14:05:39;21.65;;;18.95;;
66830;SDS011;53739;44.224;22.528;2023-03-23T14:08:23;26.67;;;18.55;;
66830;SDS011;53739;44.224;22.528;2023-03-23T14:10:57;23.35;;;18.88;;
66830;SDS011;53739;44.224;22.528;2023-03-23T14:21:05;20.27;;;17.02;;
66830;SDS011;53739;44.224;22.528;2023-03-23T14:23:32;22.77;;;18.70;;
66830;SDS011;53739;44.224;22.528;2023-03-23T14:26:03;30.08;;;22.02;;
66830;SDS011;53739;44.224;22.528;2023-03-23T14:28:38;20.60;;;16.75;;
66830;SDS011;53739;44.224;22.528;2023-03-23T14:31:23;27.75;;;20.10;;
66830;SDS011;53739;44.224;22.528;2023-03-23T14:33:51;27.90;;;24.00;;
66830;SDS011;53739;44.224;22.528;2023-03-23T14:36:20;26.85;;;21.83;;
66830;SDS011;53739;44.224;22.528;2023-03-23T14:41:37;22.77;;;18.58;;
66830;SDS011;53739;44.224;22.528;2023-03-23T14:44:05;18.00;;;15.20;;
66830;SDS011;53739;44.224;22.528;2023-03-23T14:46:33;21.05;;;16.77;;
66830;SDS011;53739;44.224;22.528;2023-03-23T14:49:01;28.05;;;20.38;;
66830;SDS011;53739;44.224;22.528;2023-03-23T14:51:28;29.75;;;22.48;;
66830;SDS011;53739;44.224;22.528;2023-03-23T14:53:55;27.45;;;20.50;;
66830;SDS011;53739;44.224;22.528;2023-03-23T14:56:23;20.27;;;16.15;;
66830;SDS011;53739;44.224;22.528;2023-03-23T14:59:05;33.47;;;26.17;;
66830;SDS011;53739;44.224;22.528;2023-03-23T15:01:33;34.13;;;25.42;;
66830;SDS011;53739;44.224;22.528;2023-03-23T15:04:09;28.02;;;21.83;;
66830;SDS011;53739;44.224;22.528;2023-03-23T15:06:42;34.30;;;26.80;;
66830;SDS011;53739;44.224;22.528;2023-03-23T15:09:14;24.08;;;21.08;;
66830;SDS011;53739;44.224;22.528;2023-03-23T15:11:43;26.15;;;22.55;;
66830;SDS011;53739;44.224;22.528;2023-03-23T15:14:22;22.52;;;19.10;;
66830;SDS011;53739;44.224;22.528;2023-03-23T15:16:53;22.92;;;17.95;;
66830;SDS011;53739;44.224;22.528;2023-03-23T15:19:23;25.70;;;18.88;;
66830;SDS011;53739;44.224;22.528;2023-03-23T15:21:53;25.02;;;19.92;;
66830;SDS011;53739;44.224;22.528;2023-03-23T15:24:31;19.33;;;16.15;;
66830;SDS011;53739;44.224;22.528;2023-03-23T15:29:48;25.35;;;19.23;;
66830;SDS011;53739;44.224;22.528;2023-03-23T15:32:22;27.45;;;21.98;;
66830;SDS011;53739;44.224;22.528;2023-03-23T15:35:09;30.23;;;21.88;;
66830;SDS011;53739;44.224;22.528;2023-03-23T15:37:42;36.97;;;26.23;;
66830;SDS011;53739;44.224;22.528;2023-03-23T15:40:20;25.60;;;20.55;;
66830;SDS011;53739;44.224;22.528;2023-03-23T15:42:47;28.35;;;22.23;;
66830;SDS011;53739;44.224;22.528;2023-03-23T15:45:27;28.50;;;23.52;;
66830;SDS011;53739;44.224;22.528;2023-03-23T15:47:53;31.30;;;25.27;;
66830;SDS011;53739;44.224;22.528;2023-03-23T15:52:51;29.23;;;23.20;;
66830;SDS011;53739;44.224;22.528;2023-03-23T15:55:22;32.08;;;23.58;;
66830;SDS011;53739;44.224;22.528;2023-03-23T15:57:48;36.97;;;27.92;;
66830;SDS011;53739;44.224;22.528;2023-03-23T16:00:15;40.10;;;30.90;;
66830;SDS011;53739;44.224;22.528;2023-03-23T16:02:42;39.30;;;30.02;;
66830;SDS011;53739;44.224;22.528;2023-03-23T16:05:10;47.38;;;32.08;;
66830;SDS011;53739;44.224;22.528;2023-03-23T16:07:37;70.35;;;46.70;;
66830;SDS011;53739;44.224;22.528;2023-03-23T16:10:03;88.95;;;59.70;;
66830;SDS011;53739;44.224;22.528;2023-03-23T16:12:30;73.20;;;51.38;;
66830;SDS011;53739;44.224;22.528;2023-03-23T16:14:56;71.63;;;46.72;;
66830;SDS011;53739;44.224;22.528;2023-03-23T16:17:21;57.85;;;40.58;;
66830;SDS011;53739;44.224;22.528;2023-03-23T16:19:47;55.63;;;40.10;;
66830;SDS011;53739;44.224;22.528;2023-03-23T16:22:13;101.55;;;61.67;;
66830;SDS011;53739;44.224;22.528;2023-03-23T16:24:39;129.07;;;84.10;;
66830;SDS011;53739;44.224;22.528;2023-03-23T16:27:05;112.80;;;73.40;;
66830;SDS011;53739;44.224;22.528;2023-03-23T16:29:33;91.05;;;60.80;;
66830;SDS011;53739;44.224;22.528;2023-03-23T16:31:58;81.43;;;54.00;;
66830;SDS011;53739;44.224;22.528;2023-03-23T16:34:24;52.75;;;41.60;;
66830;SDS011;53739;44.224;22.528;2023-03-23T16:36:52;54.42;;;42.33;;
66830;SDS011;53739;44.224;22.528;2023-03-23T16:39:18;49.60;;;37.80;;
66830;SDS011;53739;44.224;22.528;2023-03-23T16:41:44;62.50;;;54.67;;
66830;SDS011;53739;44.224;22.528;2023-03-23T16:44:10;90.93;;;70.28;;
66830;SDS011;53739;44.224;22.528;2023-03-23T16:46:36;84.55;;;62.13;;